createdAt,value
2023-04-21T00:01:23.099Z,94610.22
2023-04-21T00:03:53.253Z,94622.88
2023-04-21T00:06:23.031Z,94626.53
2023-04-21T00:08:52.872Z,94622.22
2023-04-21T00:11:19.664Z,94620.03
2023-04-21T00:13:46.523Z,94618.16
2023-04-21T00:16:13.113Z,94618.31
2023-04-21T00:18:40.052Z,94626.66
2023-04-21T00:21:06.640Z,94616.44
2023-04-21T00:23:33.381Z,94624.66
2023-04-21T00:26:02.665Z,94613.75
2023-04-21T00:28:29.840Z,94599.06
2023-04-21T00:30:58.015Z,94598.13
2023-04-21T00:33:26.790Z,94593.69
2023-04-21T00:35:57.278Z,94585.34
2023-04-21T00:38:23.828Z,94592.88
2023-04-21T00:40:50.704Z,94588.03
2023-04-21T00:43:17.435Z,94588.03
2023-04-21T00:45:46.940Z,94590.31
2023-04-21T00:48:13.967Z,94601.13
2023-04-21T00:50:41.257Z,94606.47
2023-04-21T00:53:09.442Z,94598.94
2023-04-21T00:55:36.365Z,94595.00
2023-04-21T00:58:03.898Z,94586.16
2023-04-21T01:00:30.891Z,94579.28
2023-04-21T01:02:58.172Z,94575.53
2023-04-21T01:05:25.156Z,94577.41
2023-04-21T01:07:52.045Z,94579.44
2023-04-21T01:10:18.702Z,94576.59
2023-04-21T01:12:47.509Z,94578.59
2023-04-21T01:15:16.070Z,94576.06
2023-04-21T01:17:43.620Z,94569.06
2023-04-21T01:20:14.101Z,94567.28
2023-04-21T01:22:42.284Z,94570.66
2023-04-21T01:25:09.299Z,94579.41
2023-04-21T01:27:36.503Z,94577.94
2023-04-21T01:30:04.302Z,94576.59
2023-04-21T01:32:33.833Z,94578.22
2023-04-21T01:35:01.598Z,94584.56
2023-04-21T01:37:32.084Z,94583.47
2023-04-21T01:40:01.188Z,94578.47
2023-04-21T01:42:29.442Z,94564.63
2023-04-21T01:44:58.430Z,94571.47
2023-04-21T01:47:25.584Z,94571.22
2023-04-21T01:49:52.952Z,94572.97
2023-04-21T01:52:19.780Z,94565.69
2023-04-21T01:54:46.598Z,94562.75
2023-04-21T01:57:14.616Z,94565.19
2023-04-21T01:59:41.356Z,94553.19
2023-04-21T02:02:08.589Z,94556.41
2023-04-21T02:04:35.801Z,94561.25
2023-04-21T02:07:03.088Z,94562.75
2023-04-21T02:09:29.702Z,94558.41
2023-04-21T02:12:00.364Z,94562.47
2023-04-21T02:14:28.034Z,94560.44
2023-04-21T02:16:56.382Z,94556.28
2023-04-21T02:19:23.924Z,94556.91
2023-04-21T02:21:50.592Z,94553.16
2023-04-21T02:24:17.333Z,94560.03
2023-04-21T02:26:45.572Z,94555.59
2023-04-21T02:29:12.733Z,94556.91
2023-04-21T02:31:53.868Z,94556.91
2023-04-21T02:34:24.326Z,94556.66
2023-04-21T02:36:51.052Z,94560.84
2023-04-21T02:39:19.330Z,94560.94
2023-04-21T02:41:46.098Z,94559.06
2023-04-21T02:44:12.743Z,94561.50
2023-04-21T02:46:42.748Z,94567.69
2023-04-21T02:49:12.418Z,94565.69
2023-04-21T02:51:39.066Z,94562.44
2023-04-21T02:54:05.968Z,94559.38
2023-04-21T02:56:34.658Z,94563.66
2023-04-21T02:59:01.381Z,94560.19
2023-04-21T03:01:28.260Z,94558.28
2023-04-21T03:03:54.878Z,94561.06
2023-04-21T03:06:21.546Z,94553.28
2023-04-21T03:08:48.140Z,94558.16
2023-04-21T03:11:15.026Z,94548.59
2023-04-21T03:13:41.656Z,94548.69
2023-04-21T03:16:08.324Z,94545.34
2023-04-21T03:18:36.397Z,94551.94
2023-04-21T03:21:03.243Z,94549.28
2023-04-21T03:23:30.382Z,94543.22
2023-04-21T03:25:57.224Z,94536.88
2023-04-21T03:28:23.778Z,94539.41
2023-04-21T03:30:51.911Z,94527.69
2023-04-21T03:33:19.099Z,94523.66
2023-04-21T03:35:45.950Z,94519.88
2023-04-21T03:38:12.810Z,94520.66
2023-04-21T03:40:39.351Z,94519.59
2023-04-21T03:43:06.674Z,94535.91
2023-04-21T03:45:35.992Z,94552.84
2023-04-21T03:48:03.652Z,94558.78
2023-04-21T03:50:30.823Z,94556.09
2023-04-21T03:55:23.994Z,94552.34
2023-04-21T03:57:50.538Z,94558.69
2023-04-21T04:00:17.153Z,94555.16
2023-04-21T04:02:45.182Z,94545.41
2023-04-21T04:05:12.126Z,94547.13
2023-04-21T04:07:38.796Z,94551.38
2023-04-21T04:10:05.849Z,94550.25
2023-04-21T04:12:32.396Z,94544.28
2023-04-21T04:14:59.070Z,94542.34
2023-04-21T04:17:25.870Z,94550.50
2023-04-21T04:19:52.567Z,94554.63
2023-04-21T04:22:19.062Z,94554.88
2023-04-21T04:24:45.753Z,94555.81
2023-04-21T04:27:14.142Z,94563.84
2023-04-21T04:29:41.143Z,94550.38
2023-04-21T04:32:11.373Z,94549.13
2023-04-21T04:34:38.202Z,94539.19
2023-04-21T04:37:04.937Z,94544.41
2023-04-21T04:39:32.270Z,94548.97
2023-04-21T04:41:59.362Z,94558.38
2023-04-21T04:44:26.014Z,94559.97
2023-04-21T04:46:52.816Z,94563.34
2023-04-21T04:49:19.745Z,94556.50
2023-04-21T04:51:47.307Z,94573.19
2023-04-21T04:54:14.071Z,94574.94
2023-04-21T04:56:40.693Z,94569.00
2023-04-21T04:59:07.516Z,94577.38
2023-04-21T05:01:34.350Z,94572.25
2023-04-21T05:04:01.140Z,94568.88
2023-04-21T05:06:28.712Z,94566.22
2023-04-21T05:08:56.116Z,94573.75
2023-04-21T05:11:23.388Z,94574.59
2023-04-21T05:13:50.009Z,94576.19
2023-04-21T05:16:16.815Z,94581.72
2023-04-21T05:18:43.566Z,94585.44
2023-04-21T05:21:10.330Z,94586.13
2023-04-21T05:23:37.016Z,94580.75
2023-04-21T05:26:04.684Z,94582.25
2023-04-21T05:28:32.050Z,94580.81
2023-04-21T05:30:58.845Z,94576.69
2023-04-21T05:33:27.083Z,94573.06
2023-04-21T05:35:53.653Z,94581.75
2023-04-21T05:38:20.201Z,94587.53
2023-04-21T05:40:54.124Z,94581.13
2023-04-21T05:43:21.030Z,94579.94
2023-04-21T05:45:48.105Z,94586.16
2023-04-21T05:48:14.853Z,94591.53
2023-04-21T05:50:41.493Z,94589.56
2023-04-21T05:53:10.741Z,94583.25
2023-04-21T05:55:37.897Z,94578.56
2023-04-21T05:58:05.362Z,94583.72
2023-04-21T06:00:32.029Z,94586.47
2023-04-21T06:02:58.784Z,94589.28
2023-04-21T06:05:25.911Z,94587.56
2023-04-21T06:07:52.743Z,94580.16
2023-04-21T06:10:19.595Z,94581.41
2023-04-21T06:12:46.187Z,94584.81
2023-04-21T06:15:13.088Z,94587.13
2023-04-21T06:17:39.703Z,94581.22
2023-04-21T06:20:08.019Z,94586.06
2023-04-21T06:22:34.618Z,94584.19
2023-04-21T06:25:01.218Z,94594.81
2023-04-21T06:27:27.959Z,94583.94
2023-04-21T06:29:56.194Z,94586.78
2023-04-21T06:32:23.067Z,94599.75
2023-04-21T06:34:49.634Z,94598.13
2023-04-21T06:37:16.469Z,94593.28
2023-04-21T06:39:43.278Z,94592.31
2023-04-21T06:42:10.016Z,94588.28
2023-04-21T06:44:42.265Z,94592.28
2023-04-21T06:47:08.905Z,94585.38
2023-04-21T06:49:37.349Z,94586.22
2023-04-21T06:52:04.550Z,94577.56
2023-04-21T06:54:31.166Z,94567.78
2023-04-21T06:56:57.994Z,94568.72
2023-04-21T06:59:24.638Z,94572.03
2023-04-21T07:01:52.422Z,94565.50
2023-04-21T07:04:19.730Z,94573.78
2023-04-21T07:06:47.089Z,94580.25
2023-04-21T07:09:13.776Z,94571.09
2023-04-21T07:11:40.669Z,94577.84
2023-04-21T07:14:07.460Z,94577.06
2023-04-21T07:16:34.107Z,94580.34
2023-04-21T07:19:00.832Z,94581.44
2023-04-21T07:21:27.489Z,94585.44
2023-04-21T07:23:54.054Z,94585.16
2023-04-21T07:26:20.990Z,94573.44
2023-04-21T07:28:47.619Z,94583.22
2023-04-21T07:31:14.201Z,94582.75
2023-04-21T07:33:40.969Z,94574.69
2023-04-21T07:36:07.802Z,94575.16
2023-04-21T07:38:34.826Z,94574.88
2023-04-21T07:41:01.508Z,94570.09
2023-04-21T07:43:30.292Z,94576.06
2023-04-21T07:45:57.881Z,94586.13
2023-04-21T07:48:24.564Z,94585.44
2023-04-21T07:50:51.308Z,94580.78
2023-04-21T07:53:17.936Z,94585.44
2023-04-21T07:55:44.530Z,94582.03
2023-04-21T07:58:11.231Z,94580.19
2023-04-21T08:00:37.856Z,94573.47
2023-04-21T08:03:04.565Z,94572.13
2023-04-21T08:05:35.019Z,94570.41
2023-04-21T08:08:04.878Z,94575.06
2023-04-21T08:10:46.613Z,94576.28
2023-04-21T08:13:13.275Z,94583.25
2023-04-21T08:15:39.816Z,94572.16
2023-04-21T08:18:06.967Z,94576.16
2023-04-21T08:20:33.623Z,94578.09
2023-04-21T08:23:00.594Z,94569.28
2023-04-21T08:25:27.211Z,94566.47
2023-04-21T08:27:53.990Z,94562.69
2023-04-21T08:30:20.743Z,94561.34
2023-04-21T08:32:47.335Z,94557.81
2023-04-21T08:35:14.304Z,94561.59
2023-04-21T08:37:41.733Z,94556.38
2023-04-21T08:40:08.759Z,94559.03
2023-04-21T08:42:36.939Z,94557.06
2023-04-21T08:45:04.116Z,94552.47
2023-04-21T08:47:33.118Z,94551.03
2023-04-21T08:49:59.774Z,94562.50
2023-04-21T08:52:26.472Z,94551.66
2023-04-21T08:54:53.279Z,94551.66
2023-04-21T08:57:19.965Z,94547.63
2023-04-21T08:59:46.727Z,94542.47
2023-04-21T09:02:18.825Z,94548.91
2023-04-21T09:04:51.689Z,94547.63
2023-04-21T09:07:32.206Z,94545.34
2023-04-21T09:10:00.724Z,94546.97
2023-04-21T09:12:28.104Z,94540.16
2023-04-21T09:14:55.301Z,94540.34
2023-04-21T09:17:27.424Z,94549.56
2023-04-21T09:19:55.292Z,94548.94
2023-04-21T09:22:27.473Z,94542.63
2023-04-21T09:25:00.383Z,94545.22
2023-04-21T09:27:28.379Z,94537.88
2023-04-21T09:29:55.739Z,94542.47
2023-04-21T09:32:22.704Z,94543.81
2023-04-21T09:34:49.512Z,94546.38
2023-04-21T09:37:18.762Z,94552.69
2023-04-21T09:40:03.357Z,94550.22
2023-04-21T09:42:34.988Z,94553.53
2023-04-21T09:45:16.815Z,94552.25
2023-04-21T09:47:51.998Z,94553.78
2023-04-21T09:50:33.430Z,94547.06
2023-04-21T09:53:09.761Z,94551.09
2023-04-21T09:55:36.931Z,94553.28
2023-04-21T09:58:07.002Z,94552.09
2023-04-21T10:00:39.251Z,94550.72
2023-04-21T10:03:10.559Z,94548.78
2023-04-21T10:05:42.069Z,94542.56
2023-04-21T10:08:11.521Z,94536.03
2023-04-21T10:10:39.728Z,94537.53
2023-04-21T10:13:07.414Z,94525.81
2023-04-21T10:15:41.912Z,94529.09
2023-04-21T10:18:23.270Z,94527.47
2023-04-21T10:20:53.472Z,94525.16
2023-04-21T10:23:36.647Z,94526.56
2023-04-21T10:26:06.133Z,94529.03
2023-04-21T10:28:40.954Z,94518.56
2023-04-21T10:31:16.832Z,94524.88
2023-04-21T10:34:06.698Z,94524.69
2023-04-21T10:36:43.495Z,94517.75
2023-04-21T10:39:13.192Z,94515.75
2023-04-21T10:41:39.906Z,94510.72
2023-04-21T10:44:16.390Z,94517.69
2023-04-21T10:46:52.192Z,94509.72
2023-04-21T10:49:32.207Z,94509.13
2023-04-21T10:51:58.842Z,94505.91
2023-04-21T10:54:45.584Z,94508.47
2023-04-21T10:57:15.400Z,94497.09
2023-04-21T10:59:42.464Z,94499.69
2023-04-21T11:02:12.473Z,94489.44
2023-04-21T11:04:48.021Z,94498.09
2023-04-21T11:07:18.912Z,94487.19
2023-04-21T11:09:47.729Z,94484.75
2023-04-21T11:12:18.156Z,94486.81
2023-04-21T11:14:47.977Z,94482.81
2023-04-21T11:17:16.910Z,94481.75
2023-04-21T11:19:54.278Z,94475.69
2023-04-21T11:22:26.992Z,94469.69
2023-04-21T11:24:55.445Z,94471.16
2023-04-21T11:27:22.620Z,94468.34
2023-04-21T11:29:50.679Z,94468.16
2023-04-21T11:32:18.064Z,94465.06
2023-04-21T11:34:45.741Z,94463.81
2023-04-21T11:37:17.500Z,94457.78
2023-04-21T11:39:44.381Z,94455.47
2023-04-21T11:42:11.953Z,94462.97
2023-04-21T11:44:41.812Z,94468.44
2023-04-21T11:47:19.912Z,94461.22
2023-04-21T11:49:47.856Z,94463.78
2023-04-21T11:52:45.459Z,94456.13
2023-04-21T11:55:17.899Z,94452.63
2023-04-21T11:57:44.813Z,94439.66
2023-04-21T12:00:15.926Z,94451.09
2023-04-21T12:02:43.910Z,94448.13
2023-04-21T12:05:13.244Z,94452.03
2023-04-21T12:07:45.007Z,94443.69
2023-04-21T12:10:13.364Z,94445.56
2023-04-21T12:12:41.222Z,94451.44
2023-04-21T12:15:09.661Z,94440.59
2023-04-21T12:17:51.054Z,94440.72
2023-04-21T12:20:19.734Z,94453.09
2023-04-21T12:22:46.770Z,94446.94
2023-04-21T12:25:13.930Z,94440.50
2023-04-21T12:27:51.227Z,94434.19
2023-04-21T12:30:18.981Z,94440.41
2023-04-21T12:32:45.915Z,94433.41
2023-04-21T12:35:12.465Z,94437.38
2023-04-21T12:37:39.449Z,94438.22
2023-04-21T12:40:07.957Z,94442.16
2023-04-21T12:42:37.300Z,94439.97
2023-04-21T12:45:05.372Z,94441.75
2023-04-21T12:47:32.414Z,94438.63
2023-04-21T12:49:59.153Z,94433.13
2023-04-21T12:52:26.945Z,94438.22
2023-04-21T12:54:53.690Z,94436.28
2023-04-21T12:57:21.467Z,94441.88
2023-04-21T12:59:48.646Z,94427.28
2023-04-21T13:02:15.743Z,94435.81
2023-04-21T13:04:42.694Z,94434.47
2023-04-21T13:07:09.814Z,94431.78
2023-04-21T13:09:36.595Z,94430.34
2023-04-21T13:12:03.330Z,94432.34
2023-04-21T13:14:30.392Z,94426.84
2023-04-21T13:16:57.334Z,94423.84
2023-04-21T13:19:24.114Z,94425.50
2023-04-21T13:21:53.855Z,94422.91
2023-04-21T13:24:21.502Z,94424.03
2023-04-21T13:26:48.108Z,94419.09
2023-04-21T13:29:14.788Z,94415.47
2023-04-21T13:31:41.508Z,94421.25
2023-04-21T13:34:08.400Z,94413.00
2023-04-21T13:36:35.387Z,94413.75
2023-04-21T13:39:02.224Z,94413.38
2023-04-21T13:41:28.919Z,94421.44
2023-04-21T13:43:56.256Z,94411.78
2023-04-21T13:46:23.080Z,94409.63
2023-04-21T13:48:51.752Z,94409.69
2023-04-21T13:51:19.336Z,94410.75
2023-04-21T13:53:46.257Z,94401.25
2023-04-21T13:56:14.085Z,94404.22
2023-04-21T13:58:41.878Z,94398.84
2023-04-21T14:01:09.191Z,94387.31
2023-04-21T14:03:36.266Z,94397.00
2023-04-21T14:06:03.237Z,94393.63
2023-04-21T14:08:30.281Z,94398.47
2023-04-21T14:10:57.631Z,94395.16
2023-04-21T14:16:00.509Z,94387.97
2023-04-21T14:18:27.176Z,94387.97
2023-04-21T14:20:53.743Z,94380.56
2023-04-21T14:23:20.271Z,94377.50
2023-04-21T14:25:47.212Z,94374.41
2023-04-21T14:28:14.535Z,94372.50
2023-04-21T14:30:42.917Z,94371.41
2023-04-21T14:33:09.614Z,94357.00
2023-04-21T14:35:37.601Z,94357.56
2023-04-21T14:38:04.325Z,94344.91
2023-04-21T14:40:30.905Z,94361.75
2023-04-21T14:42:57.635Z,94357.19
2023-04-21T14:45:24.349Z,94347.09
2023-04-21T14:47:51.179Z,94351.00
2023-04-21T14:50:17.925Z,94348.34
2023-04-21T14:52:45.292Z,94346.56
2023-04-21T14:55:11.835Z,94350.75
2023-04-21T14:57:38.469Z,94345.66
2023-04-21T15:00:06.747Z,94346.06
2023-04-21T15:02:33.477Z,94347.38
2023-04-21T15:05:01.508Z,94332.63
2023-04-21T15:07:28.157Z,94335.69
2023-04-21T15:09:55.439Z,94335.38
2023-04-21T15:12:22.228Z,94336.84
2023-04-21T15:14:48.937Z,94336.00
2023-04-21T15:17:15.593Z,94331.22
2023-04-21T15:19:42.232Z,94329.03
2023-04-21T15:22:08.842Z,94339.16
2023-04-21T15:24:35.605Z,94330.69
2023-04-21T15:27:02.523Z,94336.78
2023-04-21T15:29:29.279Z,94338.81
2023-04-21T15:31:56.101Z,94337.13
2023-04-21T15:34:23.065Z,94329.88
2023-04-21T15:36:49.669Z,94323.56
2023-04-21T15:39:16.387Z,94330.81
2023-04-21T15:41:42.997Z,94326.19
2023-04-21T15:44:10.776Z,94326.44
2023-04-21T15:46:37.585Z,94325.22
2023-04-21T15:49:04.249Z,94331.19
2023-04-21T15:51:33.391Z,94317.72
2023-04-21T15:53:59.983Z,94319.59
2023-04-21T15:56:27.009Z,94315.75
2023-04-21T15:58:53.782Z,94316.38
2023-04-21T16:01:21.723Z,94316.72
2023-04-21T16:03:49.264Z,94307.59
2023-04-21T16:06:16.870Z,94309.31
2023-04-21T16:11:10.562Z,94315.81
2023-04-21T16:13:37.349Z,94320.50
2023-04-21T16:16:04.061Z,94315.31
2023-04-21T16:18:30.989Z,94313.59
2023-04-21T16:20:58.014Z,94312.53
2023-04-21T16:23:25.300Z,94316.00
2023-04-21T16:25:51.963Z,94322.72
2023-04-21T16:28:18.554Z,94318.84
2023-04-21T16:30:45.513Z,94316.41
2023-04-21T16:33:13.220Z,94320.16
2023-04-21T16:35:40.397Z,94320.22
2023-04-21T16:38:10.094Z,94323.59
2023-04-21T16:40:36.833Z,94315.97
2023-04-21T16:43:03.537Z,94323.59
2023-04-21T16:45:31.563Z,94324.22
2023-04-21T16:47:58.843Z,94329.56
2023-04-21T16:50:25.897Z,94327.84
2023-04-21T16:52:52.887Z,94321.41
2023-04-21T16:55:19.711Z,94323.13
2023-04-21T16:57:46.379Z,94327.69
2023-04-21T17:00:13.946Z,94326.53
2023-04-21T17:02:40.638Z,94318.81
2023-04-21T17:05:07.800Z,94316.66
2023-04-21T17:07:35.320Z,94316.72
2023-04-21T17:10:01.922Z,94325.69
2023-04-21T17:12:28.527Z,94325.38
2023-04-21T17:14:55.225Z,94326.06
2023-04-21T17:17:22.109Z,94314.50
2023-04-21T17:19:48.899Z,94320.31
2023-04-21T17:22:15.746Z,94321.59
2023-04-21T17:24:52.391Z,94324.97
2023-04-21T17:27:19.910Z,94318.81
2023-04-21T17:29:46.881Z,94320.84
2023-04-21T17:32:14.247Z,94325.88
2023-04-21T17:34:40.991Z,94327.50
2023-04-21T17:37:07.742Z,94327.31
2023-04-21T17:39:34.525Z,94334.72
2023-04-21T17:42:02.594Z,94340.53
2023-04-21T17:44:29.338Z,94343.16
2023-04-21T17:46:56.698Z,94340.78
2023-04-21T17:49:24.845Z,94341.16
2023-04-21T17:51:52.001Z,94348.53
2023-04-21T17:54:18.920Z,94349.75
2023-04-21T17:56:46.196Z,94349.50
2023-04-21T17:59:13.359Z,94351.66
2023-04-21T18:01:40.282Z,94355.97
2023-04-21T18:04:07.348Z,94362.09
2023-04-21T18:06:34.868Z,94364.22
2023-04-21T18:09:01.733Z,94363.75
2023-04-21T18:11:28.545Z,94367.06
2023-04-21T18:13:55.413Z,94371.00
2023-04-21T18:16:22.289Z,94370.06
2023-04-21T18:18:50.070Z,94371.81
2023-04-21T18:21:17.017Z,94382.34
2023-04-21T18:23:43.962Z,94403.56
2023-04-21T18:26:10.894Z,94422.63
2023-04-21T18:28:37.800Z,94429.28
2023-04-21T18:31:04.517Z,94436.91
2023-04-21T18:33:31.314Z,94443.25
2023-04-21T18:35:58.102Z,94453.09
2023-04-21T18:38:24.681Z,94458.81
2023-04-21T18:40:51.427Z,94461.66
2023-04-21T18:43:18.069Z,94470.69
2023-04-21T18:45:44.624Z,94470.84
2023-04-21T18:48:11.391Z,94474.19
2023-04-21T18:50:40.327Z,94483.22
2023-04-21T18:53:08.461Z,94496.00
2023-04-21T18:55:36.301Z,94500.06
2023-04-21T18:58:03.712Z,94504.00
2023-04-21T19:00:32.091Z,94503.19
2023-04-21T19:03:03.741Z,94510.94
2023-04-21T19:05:31.871Z,94520.00
2023-04-21T19:07:58.710Z,94511.47
2023-04-21T19:10:26.233Z,94511.00
2023-04-21T19:12:53.206Z,94523.88
2023-04-21T19:15:20.988Z,94514.25
2023-04-21T19:17:47.677Z,94519.03
2023-04-21T19:20:14.382Z,94513.75
2023-04-21T19:22:41.762Z,94514.63
2023-04-21T19:25:08.723Z,94516.53
2023-04-21T19:27:36.139Z,94518.22
2023-04-21T19:30:03.746Z,94515.88
2023-04-21T19:32:30.853Z,94517.84
2023-04-21T19:34:57.810Z,94519.34
2023-04-21T19:37:26.443Z,94512.53
2023-04-21T19:39:53.386Z,94520.50
2023-04-21T19:42:20.105Z,94515.34
2023-04-21T19:44:46.674Z,94518.06
2023-04-21T19:47:13.776Z,94506.66
2023-04-21T19:49:40.486Z,94505.78
2023-04-21T19:52:07.248Z,94502.31
2023-04-21T19:54:33.978Z,94497.66
2023-04-21T19:57:01.395Z,94487.53
2023-04-21T19:59:28.334Z,94489.59
2023-04-21T20:01:54.947Z,94481.00
2023-04-21T20:04:21.739Z,94486.69
2023-04-21T20:06:48.814Z,94486.75
2023-04-21T20:09:16.034Z,94491.81
2023-04-21T20:11:43.327Z,94483.47
2023-04-21T20:14:09.944Z,94486.28
2023-04-21T20:16:36.909Z,94498.13
2023-04-21T20:19:04.630Z,94503.06
2023-04-21T20:21:32.447Z,94492.75
2023-04-21T20:23:59.242Z,94488.59
2023-04-21T20:26:25.945Z,94484.38
2023-04-21T20:28:52.707Z,94479.56
2023-04-21T20:31:23.646Z,94473.78
2023-04-21T20:33:50.613Z,94475.09
2023-04-21T20:36:17.813Z,94475.16
2023-04-21T20:38:46.248Z,94470.94
2023-04-21T20:41:13.440Z,94468.25
2023-04-21T20:43:40.490Z,94464.06
2023-04-21T20:46:08.816Z,94463.31
2023-04-21T20:48:35.553Z,94473.66
2023-04-21T20:51:02.808Z,94460.91
2023-04-21T20:53:29.356Z,94459.97
2023-04-21T20:55:56.113Z,94457.59
2023-04-21T20:58:24.371Z,94453.38
2023-04-21T21:00:51.083Z,94451.91
2023-04-21T21:03:20.448Z,94454.69
2023-04-21T21:05:47.938Z,94454.88
2023-04-21T21:08:15.161Z,94452.16
2023-04-21T21:10:41.909Z,94459.59
2023-04-21T21:13:08.714Z,94456.69
2023-04-21T21:15:35.531Z,94455.91
2023-04-21T21:18:02.525Z,94453.97
2023-04-21T21:20:29.549Z,94468.00
2023-04-21T21:22:56.196Z,94468.81
2023-04-21T21:25:22.865Z,94465.56
2023-04-21T21:27:49.983Z,94465.53
2023-04-21T21:30:16.659Z,94467.66
2023-04-21T21:32:43.570Z,94466.19
2023-04-21T21:35:12.061Z,94467.50
2023-04-21T21:37:39.603Z,94462.16
2023-04-21T21:40:07.185Z,94459.59
2023-04-21T21:42:33.862Z,94459.75
2023-04-21T21:45:01.166Z,94455.38
2023-04-21T21:47:27.852Z,94456.84
2023-04-21T21:49:56.113Z,94463.78
2023-04-21T21:52:22.772Z,94457.31
2023-04-21T21:54:49.418Z,94458.59
2023-04-21T21:57:16.801Z,94455.72
2023-04-21T21:59:43.936Z,94467.75
2023-04-21T22:02:10.729Z,94469.84
2023-04-21T22:04:38.039Z,94468.88
2023-04-21T22:07:05.141Z,94470.50
2023-04-21T22:09:31.807Z,94463.22
2023-04-21T22:11:58.611Z,94463.03
2023-04-21T22:14:25.396Z,94465.25
2023-04-21T22:16:52.587Z,94468.16
2023-04-21T22:19:19.432Z,94466.09
2023-04-21T22:21:46.254Z,94471.88
2023-04-21T22:24:13.352Z,94470.47
2023-04-21T22:26:40.056Z,94460.59
2023-04-21T22:29:07.008Z,94468.88
2023-04-21T22:31:33.893Z,94465.00
2023-04-21T22:34:01.455Z,94466.75
2023-04-21T22:36:28.375Z,94477.00
2023-04-21T22:38:54.929Z,94479.25
2023-04-21T22:41:21.659Z,94475.34
2023-04-21T22:43:48.262Z,94482.50
2023-04-21T22:46:15.333Z,94482.38
2023-04-21T22:48:41.988Z,94482.88
2023-04-21T22:51:08.865Z,94483.72
2023-04-21T22:53:35.509Z,94477.41
2023-04-21T22:56:02.356Z,94488.50
2023-04-21T22:58:29.015Z,94485.38
2023-04-21T23:00:55.613Z,94483.34
2023-04-21T23:03:23.179Z,94480.66
2023-04-21T23:05:49.934Z,94489.84
2023-04-21T23:08:16.704Z,94490.66
2023-04-21T23:10:43.398Z,94493.53
2023-04-21T23:13:10.244Z,94496.09
2023-04-21T23:15:36.809Z,94495.78
2023-04-21T23:18:03.564Z,94499.66
2023-04-21T23:20:31.176Z,94494.97
2023-04-21T23:22:58.014Z,94495.59
2023-04-21T23:25:24.852Z,94493.63
2023-04-21T23:27:51.426Z,94491.84
2023-04-21T23:30:18.165Z,94498.84
2023-04-21T23:32:45.425Z,94492.22
2023-04-21T23:35:12.164Z,94489.88
2023-04-21T23:37:39.030Z,94495.59
2023-04-21T23:40:09.128Z,94495.25
2023-04-21T23:42:36.279Z,94494.84
2023-04-21T23:45:04.280Z,94489.28
2023-04-21T23:47:31.084Z,94491.59
2023-04-21T23:49:58.155Z,94486.09
2023-04-21T23:52:25.042Z,94486.28
2023-04-21T23:54:51.801Z,94484.97
2023-04-21T23:57:18.675Z,94480.13
2023-04-21T23:59:45.900Z,94477.94
